Friday, July 20, 2018, 4:56 AM EDT
Back to Local

KNUI, Knui Webster Field Annex

Location: Saint Inigoes, MD, United States Lat: 38.15
Local Time: 4:56 AM EDT ( 8:56 GMT) Lon: -76.417
Time Zone: US/Eastern Elev: 19 ft

Show me the last for .
Show Decoded

2018-07-20 03:53 METAR KNUI 200753Z AUTO 06003KT 10SM CLR 19/17 A3009 RMK AO2 SLP187 T01890167 =
2018-07-20 02:53 METAR KNUI 200653Z AUTO 10003KT 10SM CLR 19/17 A3009 RMK AO2 SLP187 T01940172 =
2018-07-20 01:53 METAR KNUI 200553Z AUTO 00000KT 10SM CLR 20/18 A3009 RMK AO2 SLP190 T02000178
                 10250 20200 50002 =
2018-07-20 00:53 METAR KNUI 200453Z AUTO 13004KT 10SM CLR 24/17 A3010 RMK AO2 SLP191 T02390172
                 403000189 =
2018-07-19 23:53 METAR KNUI 200353Z AUTO VRB03KT 10SM CLR 24/18 A3010 RMK AO2 SLP191 T02440178 =
2018-07-19 22:53 METAR KNUI 200253Z AUTO 13003KT 10SM CLR 22/17 A3009 RMK AO2 SLP188 T02170172
                 53012 =
2018-07-19 21:53 METAR KNUI 200153Z AUTO 12003KT 10SM CLR 21/17 A3008 RMK AO2 SLP185 T02060172 =
2018-07-19 20:53 METAR KNUI 200053Z AUTO 00000KT 10SM CLR 22/18 A3006 RMK AO2 SLP179 T02220178 =
2018-07-19 19:53 METAR KNUI 192353Z AUTO 11003KT 10SM CLR 25/17 A3005 RMK AO2 SLP176 T02500172
                 10300 20250 55001 =
2018-07-19 18:53 METAR KNUI 192253Z AUTO 07004KT 10SM CLR 28/14 A3005 RMK AO2 SLP174 T02830144 =
2018-07-19 17:53 METAR KNUI 192153Z AUTO 12005KT 10SM CLR 29/11 A3004 RMK AO2 SLP173 T02890111 =
2018-07-19 16:53 METAR KNUI 192053Z AUTO 04004KT 10SM CLR 29/12 A3006 RMK AO2 SLP178 T02940122
                 56009 =
2018-07-19 15:53 METAR KNUI 191953Z AUTO VRB05KT 10SM CLR 30/13 A3007 RMK AO2 SLP180 T03000128 =
2018-07-19 14:53 METAR KNUI 191853Z AUTO VRB04KT 10SM CLR 29/12 A3007 RMK AO2 SLP181 T02940122 =
2018-07-19 13:53 METAR KNUI 191753Z AUTO VRB04KT 10SM CLR 29/12 A3009 RMK AO2 SLP187 T02940117
                 10300 20239 55001 =
2018-07-19 12:53 METAR KNUI 191653Z AUTO VRB05KT 10SM CLR 29/14 A3008 RMK AO2 SLP186 T02890144 =
2018-07-19 11:53 METAR KNUI 191553Z AUTO 05007KT 10SM CLR 28/17 A3009 RMK AO2 SLP188 T02780167 =
2018-07-19 10:53 METAR KNUI 191453Z AUTO 05007KT 10SM CLR 27/17 A3009 RMK AO2 SLP188 T02720172
                 51013 =
2018-07-19 09:53 METAR KNUI 191353Z AUTO 07008KT 10SM CLR 27/17 A3008 RMK AO2 SLP184 T02670167 =
2018-07-19 08:53 METAR KNUI 191253Z AUTO 04006KT 10SM CLR 26/17 A3007 RMK AO2 SLP180 T02560167 =
2018-07-19 07:53 METAR KNUI 191153Z AUTO 06007KT 10SM CLR 24/18 A3005 RMK AO2 SLP175 T02390178
                 10239 20189 53014 $ =
2018-07-19 06:53 METAR KNUI 191053Z AUTO 05009KT 10SM CLR 23/19 A3003 RMK AO2 SLP168 T02280189 =
2018-07-19 05:53 METAR KNUI 190953Z AUTO 04005KT 10SM CLR 21/18 A3001 RMK AO2 SLP163 T02110178 =

Support USWX by starting your Amazon purchase here.